Flight Track Log - Related Links

Times and Time Zones

All times are in EDT time to prevent confusion due to time zone crossing. See the SWA1377 flight status page for this flight to view local times or setup timezone preferences in your user account.

Time Position Orientation Groundspeed Altitude Reporting Facility
EDT Latitude Longitude Course Direction KTS MPH feet Rate Location/Type
Sun 12:28:39 PM 42.9833 -78.6333 59° Northeast 219 252 4,500  Level Buffalo TRACON
Sun 12:29:24 PM 42.9333 -78.6181 167° South 232 267 6,200 2,971 Climbing Cleveland Center
Sun 12:30:24 PM 42.8625 -78.6231 183° South 249 287 9,700 2,800 Climbing Cleveland Center
Sun 12:31:24 PM 42.7833 -78.6228 180° South 275 316 11,800 2,750 Climbing Cleveland Center
Sun 12:32:24 PM 42.6894 -78.6228 180° South 309 356 15,200 3,150 Climbing Cleveland Center
Sun 12:33:24 PM 42.5894 -78.6258 181° South 343 395 18,100 2,850 Climbing Cleveland Center
Sun 12:34:24 PM 42.4831 -78.6236 179° South 364 419 20,900 3,050 Climbing Cleveland Center
Sun 12:35:24 PM 42.3767 -78.6128 176° South 385 443 24,200 2,050 Climbing Cleveland Center
Sun 12:36:24 PM 42.2917 -78.5258 143° Southeast 360 414 25,000 400 Climbing Cleveland Center
Sun 12:37:24 PM 42.2108 -78.4331 140° Southeast 365 420 25,000  Level Cleveland Center
Sun 12:38:24 PM 42.1108 -78.3244 141° Southeast 395 455 25,000  Level Cleveland Center
Sun 12:39:24 PM 42.0192 -78.2214 140° Southeast 409 471 25,000  Level Cleveland Center
Sun 12:40:24 PM 41.9403 -78.1350 141° Southeast 415 478 25,000  Level Cleveland Center
Sun 12:41:07 PM 41.8647 -78.0542 141° Southeast 426 490 25,000  Level New York Center
Sun 12:42:05 PM 41.7731 -77.9522 140° Southeast 421 484 25,000  Level New York Center
Sun 12:43:05 PM 41.6833 -77.8511 140° Southeast 421 484 25,000  Level New York Center
Sun 12:44:06 PM 41.5914 -77.7497 140° Southeast 421 484 25,000  Level New York Center
Sun 12:45:07 PM 41.5014 -77.6489 140° Southeast 421 484 25,000 -50 Level New York Center
Sun 12:46:07 PM 41.4192 -77.5575 140° Southeast 421 484 24,900 -605 Descending New York Center
Sun 12:47:06 PM 41.3267 -77.4625 142° Southeast 421 484 23,800 -1,109 Descending New York Center
Sun 12:48:06 PM 41.2264 -77.3533 141° Southeast 421 484 22,700 -1,050 Descending New York Center
Sun 12:49:06 PM 41.1397 -77.2622 142° Southeast 416 479 21,700 -992 Descending New York Center
Sun 12:50:07 PM 41.0553 -77.1686 140° Southeast 410 472 20,700 -1,008 Descending New York Center
Sun 12:51:05 PM 40.9706 -77.0783 141° Southeast 404 465 19,700 -1,059 Descending New York Center
Sun 12:52:06 PM 40.8875 -76.9911 142° Southeast 399 459 18,600 -843 Descending New York Center
Sun 12:53:06 PM 40.8086 -76.9069 141° Southeast 382 440 18,000 -850 Descending New York Center
Sun 12:54:06 PM 40.7319 -76.8153 138° Southeast 375 432 16,900 -1,041 Descending New York Center
Sun 12:55:07 PM 40.6592 -76.7294 138° Southeast 369 425 15,900 -958 Descending New York Center
Sun 12:56:05 PM 40.5867 -76.6411 137° Southeast 364 419 15,000 -458 Descending New York Center
Sun 12:57:05 PM 40.5247 -76.5431 130° Southeast 355 409 15,000  Level New York Center
Sun 12:58:07 PM 40.4322 -76.5136 166° South 317 365 15,000 -98 Level New York Center
Sun 12:59:08 PM 40.3339 -76.5244 185° South 340 391 14,800 -559 Descending New York Center
Sun 01:00:05 PM 40.2331 -76.5378 186° South 361 415 13,900 -966 Descending New York Center
Sun 01:01:06 PM 40.1450 -76.5494 186° South 361 415 12,900 -640 Descending New York Center
Sun 01:03:03 PM 39.9500 -76.5667 184° South 315 362 12,000 -316 Descending Potomac TRACON
Sun 01:03:57 PM 39.8833 -76.5833 191° South 289 333 12,000  Level Potomac TRACON
Sun 01:05:03 PM 39.8000 -76.6167 197° South 295 339 12,000 -286 Level Potomac TRACON
Sun 01:06:03 PM 39.7167 -76.6500 197° South 291 335 11,400 -1,053 Descending Potomac TRACON
Sun 01:06:57 PM 39.6500 -76.6833 201° Southwest 285 328 10,000 -1,450 Descending Potomac TRACON
Sun 01:08:03 PM 39.5667 -76.7167 197° South 280 322 8,500 -1,429 Descending Potomac TRACON
Sun 01:09:03 PM 39.5000 -76.7500 201° Southwest 276 318 7,000 -1,461 Descending Potomac TRACON
Sun 01:09:58 PM 39.4333 -76.7833 201° Southwest 272 313 5,700 -1,438 Descending Potomac TRACON
Sun 01:11:04 PM 39.3500 -76.8000 189° South 262 302 4,100 -1,190 Descending Potomac TRACON
Sun 01:12:04 PM 39.2833 -76.8000 180° South 243 280 3,200 -842 Descending Potomac TRACON
Sun 01:12:58 PM 39.2333 -76.7833 166° South 215 247 2,500 -850 Descending Potomac TRACON
Sun 01:14:04 PM 39.1833 -76.7500 153° Southeast 176 203 1,500 -950 Descending Potomac TRACON
Sun 01:14:58 PM 39.1833 -76.7167 90° East 129 148 600 -1,000 Descending Potomac TRACON
Sun 01:16:00 PM 39.1667 -76.6667 270° West  Level FlightAware Approximate
Sun 01:23:00 PM 39.1754 -76.6683 270° West  Level Estimated
Sun 01:24:00 PM 39.1754 -76.6683 270° West  Level Estimated
Sun 01:25:00 PM 39.1754 -76.6683 270° West  Level Estimated
Sun 01:26:00 PM 39.1754 -76.6683 270° West  Level Estimated

Login

Don't have an account? Register now (free) for customized features, flight alerts, and more!